Time;durP1;ratioP1;P1;durP2;ratioP2;P2;SDS_P1;SDS_P2;PMS_P1;PMS_P2;Temp;Humidity;BMP_temperature;BMP_pressure;BME280_temperature;BME280_humidity;BME280_pressure;Samples;Min_cycle;Max_cycle;Signal;HPM_P1;HPM_P2
2021/06/08 00:00:34;;;;;;;25.55;21.38;;;;;;;;;;5010021;28;20026;-63
2021/06/08 00:03:02;;;;;;;28.23;23.88;;;;;;;;;;5009870;28;20041;-63
2021/06/08 00:05:28;;;;;;;33.55;27.17;;;;;;;;;;5010545;28;20486;-64
2021/06/08 00:07:54;;;;;;;26.58;23.35;;;;;;;;;;4993055;28;20076;-63
2021/06/08 00:10:21;;;;;;;26.65;21.83;;;;;;;;;;5009696;28;20109;-63
2021/06/08 00:12:47;;;;;;;27.00;20.75;;;;;;;;;;5009318;28;20025;-63
2021/06/08 00:15:14;;;;;;;32.15;24.83;;;;;;;;;;5009783;28;20018;-64
2021/06/08 00:17:40;;;;;;;34.95;31.10;;;;;;;;;;4993646;28;20103;-63
2021/06/08 00:20:07;;;;;;;27.48;19.73;;;;;;;;;;4993631;28;20065;-64
2021/06/08 00:22:33;;;;;;;25.77;19.67;;;;;;;;;;4994150;28;20026;-63
2021/06/08 00:24:59;;;;;;;27.27;19.73;;;;;;;;;;4994247;28;20023;-64
2021/06/08 00:27:25;;;;;;;26.63;19.65;;;;;;;;;;5011188;28;20037;-63
2021/06/08 00:29:51;;;;;;;24.73;20.23;;;;;;;;;;5010839;28;20026;-63
2021/06/08 00:32:17;;;;;;;29.77;24.92;;;;;;;;;;5010957;28;20517;-63
2021/06/08 00:34:43;;;;;;;25.80;19.73;;;;;;;;;;5011482;28;20571;-63
2021/06/08 00:37:09;;;;;;;29.35;24.90;;;;;;;;;;5011673;28;20034;-65
2021/06/08 00:39:35;;;;;;;26.17;20.17;;;;;;;;;;4993833;28;20037;-63
2021/06/08 00:42:01;;;;;;;27.50;21.30;;;;;;;;;;4993960;28;20026;-64
2021/06/08 00:44:27;;;;;;;27.27;20.00;;;;;;;;;;5011352;28;20101;-64
2021/06/08 00:46:53;;;;;;;26.27;21.17;;;;;;;;;;5011683;28;20026;-64
2021/06/08 00:49:19;;;;;;;24.90;19.98;;;;;;;;;;4995835;28;20482;-64
2021/06/08 00:51:45;;;;;;;26.25;20.65;;;;;;;;;;4997467;28;20167;-64
2021/06/08 00:54:11;;;;;;;27.83;21.42;;;;;;;;;;4998036;28;20378;-63
2021/06/08 00:56:38;;;;;;;25.60;21.25;;;;;;;;;;5015183;28;20049;-63
2021/06/08 00:59:05;;;;;;;26.13;21.45;;;;;;;;;;4997712;28;20026;-64
2021/06/08 01:01:31;;;;;;;29.33;22.52;;;;;;;;;;5014832;28;20026;-64
2021/06/08 01:03:57;;;;;;;28.52;22.75;;;;;;;;;;5014417;28;20025;-63
2021/06/08 01:06:24;;;;;;;27.98;22.35;;;;;;;;;;5014335;28;20466;-64
2021/06/08 01:08:50;;;;;;;29.92;24.55;;;;;;;;;;4996872;28;20033;-64
2021/06/08 01:11:16;;;;;;;28.50;23.30;;;;;;;;;;5014153;28;20505;-64
2021/06/08 01:13:42;;;;;;;31.88;25.88;;;;;;;;;;5013827;28;20084;-63
2021/06/08 01:16:08;;;;;;;30.42;25.00;;;;;;;;;;5014400;28;20030;-64
2021/06/08 01:18:34;;;;;;;33.33;25.77;;;;;;;;;;5014543;28;20375;-64
2021/06/08 01:21:02;;;;;;;29.98;25.50;;;;;;;;;;4996672;28;20072;-63
2021/06/08 01:23:28;;;;;;;34.78;27.08;;;;;;;;;;4996264;28;20026;-64
2021/06/08 01:25:55;;;;;;;31.83;26.67;;;;;;;;;;4996371;28;20029;-64
2021/06/08 01:28:22;;;;;;;31.30;26.33;;;;;;;;;;4996161;28;20030;-63
2021/06/08 01:30:48;;;;;;;32.17;26.98;;;;;;;;;;5043630;23;20060;-64
2021/06/08 01:33:15;;;;;;;34.20;26.65;;;;;;;;;;5032694;28;20159;-65
2021/06/08 01:35:41;;;;;;;33.30;27.50;;;;;;;;;;5048780;28;20551;-65
2021/06/08 01:38:08;;;;;;;32.08;27.45;;;;;;;;;;5048814;28;20036;-65
2021/06/08 01:40:34;;;;;;;35.25;28.48;;;;;;;;;;5033235;28;20079;-65
2021/06/08 01:43:00;;;;;;;34.10;28.98;;;;;;;;;;5033051;28;20022;-66
2021/06/08 01:45:27;;;;;;;34.42;28.83;;;;;;;;;;5033389;28;20032;-65
2021/06/08 01:47:53;;;;;;;34.63;27.50;;;;;;;;;;5033160;28;20100;-65
2021/06/08 01:50:19;;;;;;;35.33;28.63;;;;;;;;;;5031895;28;20187;-65
2021/06/08 01:52:55;;;;;;;33.65;28.13;;;;;;;;;;5031555;28;20028;-65
2021/06/08 01:55:29;;;;;;;35.72;28.08;;;;;;;;;;5031888;28;20049;-66
2021/06/08 01:58:15;;;;;;;33.97;26.88;;;;;;;;;;5033096;28;20404;-66
2021/06/08 02:00:46;;;;;;;34.88;28.65;;;;;;;;;;5030343;28;20413;-65
2021/06/08 02:03:20;;;;;;;34.47;29.30;;;;;;;;;;5031487;28;20022;-66
2021/06/08 02:06:01;;;;;;;36.42;28.23;;;;;;;;;;5032890;28;20013;-65
2021/06/08 02:08:36;;;;;;;33.83;27.50;;;;;;;;;;5032813;28;20026;-66
2021/06/08 02:11:14;;;;;;;34.15;27.38;;;;;;;;;;5032595;28;20397;-65
2021/06/08 02:13:45;;;;;;;34.60;27.83;;;;;;;;;;5032567;28;20490;-64
2021/06/08 02:16:17;;;;;;;33.58;26.80;;;;;;;;;;5032307;28;20029;-65
2021/06/08 02:18:44;;;;;;;35.05;28.13;;;;;;;;;;5033554;28;20026;-65
2021/06/08 02:21:10;;;;;;;35.28;26.83;;;;;;;;;;5033202;28;20029;-65
2021/06/08 02:23:38;;;;;;;32.90;27.60;;;;;;;;;;5033251;28;20115;-65
2021/06/08 02:26:04;;;;;;;35.47;27.90;;;;;;;;;;5033401;28;20083;-65
2021/06/08 02:28:33;;;;;;;33.47;27.98;;;;;;;;;;5032409;28;20112;-65
2021/06/08 02:31:02;;;;;;;;;;;;;;;;;;5031922;28;20033;-65
2021/06/08 02:33:28;;;;;;;32.25;26.20;;;;;;;;;;5033081;28;19905;-66
2021/06/08 02:35:54;;;;;;;34.03;26.67;;;;;;;;;;5033142;28;20033;-65
2021/06/08 02:38:21;;;;;;;33.20;27.38;;;;;;;;;;5032033;28;20036;-65
2021/06/08 02:40:47;;;;;;;33.00;26.83;;;;;;;;;;5033055;28;20469;-64
2021/06/08 02:43:13;;;;;;;30.02;25.17;;;;;;;;;;5031939;28;20029;-64
2021/06/08 02:45:40;;;;;;;33.15;26.48;;;;;;;;;;5032717;28;20061;-65
2021/06/08 02:48:06;;;;;;;32.22;25.17;;;;;;;;;;5033206;28;20029;-65
2021/06/08 02:50:32;;;;;;;30.70;25.20;;;;;;;;;;5032909;28;20037;-65
2021/06/08 02:52:59;;;;;;;29.95;24.48;;;;;;;;;;5032606;28;20541;-64
2021/06/08 02:55:26;;;;;;;31.25;24.75;;;;;;;;;;5031040;28;20037;-66
2021/06/08 02:57:53;;;;;;;30.58;24.77;;;;;;;;;;5032046;28;20397;-65
2021/06/08 03:00:20;;;;;;;33.53;25.38;;;;;;;;;;5031701;28;20176;-66
2021/06/08 03:02:47;;;;;;;33.95;23.00;;;;;;;;;;5031884;28;20052;-65
2021/06/08 03:05:23;;;;;;;30.48;21.67;;;;;;;;;;5032757;28;20198;-65
2021/06/08 03:07:49;;;;;;;29.38;22.17;;;;;;;;;;5032504;28;20512;-65
2021/06/08 03:10:22;;;;;;;26.90;20.42;;;;;;;;;;5031223;28;20367;-66
2021/06/08 03:12:55;;;;;;;26.50;20.17;;;;;;;;;;5032224;28;20052;-66
2021/06/08 03:15:35;;;;;;;25.70;19.10;;;;;;;;;;5032401;28;20085;-66
2021/06/08 03:18:02;;;;;;;24.58;18.45;;;;;;;;;;5032295;28;20457;-65
2021/06/08 03:20:37;;;;;;;23.40;16.85;;;;;;;;;;5031457;28;20061;-66
2021/06/08 03:23:05;;;;;;;24.77;16.00;;;;;;;;;;5032028;28;20104;-64
2021/06/08 03:25:32;;;;;;;22.77;16.25;;;;;;;;;;5031748;28;20079;-66
2021/06/08 03:28:00;;;;;;;24.92;16.15;;;;;;;;;;5031490;28;20018;-66
2021/06/08 03:30:26;;;;;;;22.65;15.35;;;;;;;;;;5031972;28;20405;-65
2021/06/08 03:32:53;;;;;;;21.02;14.95;;;;;;;;;;5030277;28;20030;-65
2021/06/08 03:35:23;;;;;;;22.17;16.25;;;;;;;;;;5030095;28;20135;-66
2021/06/08 03:37:51;;;;;;;22.85;15.40;;;;;;;;;;5031195;28;20033;-65
2021/06/08 03:40:17;;;;;;;22.85;15.48;;;;;;;;;;5030048;28;20026;-65
2021/06/08 03:42:43;;;;;;;21.88;14.75;;;;;;;;;;5029989;28;20074;-65
2021/06/08 03:45:11;;;;;;;21.50;14.82;;;;;;;;;;5031739;28;20393;-65
2021/06/08 03:47:37;;;;;;;22.15;15.45;;;;;;;;;;5031995;28;20033;-66
2021/06/08 03:50:04;;;;;;;22.60;15.80;;;;;;;;;;5030648;28;20029;-66
2021/06/08 03:52:30;;;;;;;21.65;14.52;;;;;;;;;;5030512;28;20390;-66
2021/06/08 03:54:56;;;;;;;21.65;14.75;;;;;;;;;;5030696;28;20036;-65
2021/06/08 03:57:28;;;;;;;24.48;16.15;;;;;;;;;;5030383;28;20128;-64
2021/06/08 03:59:55;;;;;;;20.75;15.05;;;;;;;;;;5031383;28;20028;-65
2021/06/08 04:02:22;;;;;;;20.27;14.10;;;;;;;;;;5030231;28;20442;-66
2021/06/08 04:04:49;;;;;;;23.05;14.57;;;;;;;;;;5030639;28;20043;-66
2021/06/08 04:07:15;;;;;;;20.85;14.02;;;;;;;;;;5031644;28;20303;-66
2021/06/08 04:09:41;;;;;;;24.83;13.85;;;;;;;;;;5031854;28;20033;-65
2021/06/08 04:12:07;;;;;;;20.73;13.40;;;;;;;;;;5031421;28;20034;-66
2021/06/08 04:14:33;;;;;;;23.38;14.38;;;;;;;;;;5031333;28;20151;-65
2021/06/08 04:16:59;;;;;;;20.98;13.77;;;;;;;;;;5031776;28;20492;-65
2021/06/08 04:19:26;;;;;;;20.10;13.07;;;;;;;;;;5031473;28;20044;-65
2021/06/08 04:21:52;;;;;;;20.23;13.88;;;;;;;;;;5030144;28;20287;-65
2021/06/08 04:24:18;;;;;;;20.75;14.05;;;;;;;;;;5033406;28;20394;-65
2021/06/08 04:26:44;;;;;;;24.50;14.95;;;;;;;;;;5036153;28;20025;-64
2021/06/08 04:29:10;;;;;;;21.33;13.93;;;;;;;;;;5036387;28;20079;-65
2021/06/08 04:31:36;;;;;;;21.60;13.90;;;;;;;;;;5034690;28;20497;-65
2021/06/08 04:34:03;;;;;;;19.27;13.27;;;;;;;;;;5035904;28;20497;-64
2021/06/08 04:36:29;;;;;;;22.13;14.48;;;;;;;;;;5036264;28;20392;-65
2021/06/08 04:38:55;;;;;;;20.85;13.68;;;;;;;;;;5036676;28;20462;-64
2021/06/08 04:41:21;;;;;;;23.10;13.80;;;;;;;;;;5034836;28;20061;-64
2021/06/08 04:43:47;;;;;;;22.67;13.82;;;;;;;;;;5035457;28;20100;-65
2021/06/08 04:46:14;;;;;;;23.75;13.68;;;;;;;;;;5034420;28;20516;-66
2021/06/08 04:48:41;;;;;;;29.80;16.10;;;;;;;;;;5034992;28;20109;-64
2021/06/08 04:51:07;;;;;;;21.92;14.07;;;;;;;;;;5034257;28;20462;-63
2021/06/08 04:53:34;;;;;;;24.55;13.35;;;;;;;;;;5033942;28;20037;-67
2021/06/08 04:56:00;;;;;;;21.40;13.55;;;;;;;;;;5036025;28;20017;-65
2021/06/08 04:58:26;;;;;;;22.17;14.02;;;;;;;;;;5036015;28;20041;-66
2021/06/08 05:00:56;;;;;;;21.30;13.73;;;;;;;;;;5035599;28;20362;-66
2021/06/08 05:03:25;;;;;;;22.08;13.30;;;;;;;;;;5035995;28;20022;-65
2021/06/08 05:05:53;;;;;;;19.63;13.00;;;;;;;;;;5035878;28;20028;-64
2021/06/08 05:08:29;;;;;;;20.05;13.65;;;;;;;;;;5037183;28;20049;-65
2021/06/08 05:11:03;;;;;;;21.77;13.70;;;;;;;;;;5035883;28;20025;-65
2021/06/08 05:13:30;;;;;;;21.08;13.38;;;;;;;;;;5034606;28;20028;-64
2021/06/08 05:15:57;;;;;;;21.42;13.80;;;;;;;;;;5036174;28;20036;-65
2021/06/08 05:18:23;;;;;;;21.33;13.82;;;;;;;;;;5036579;28;20021;-65
2021/06/08 05:20:49;;;;;;;20.65;13.55;;;;;;;;;;5035153;28;20500;-64
2021/06/08 05:23:17;;;;;;;21.38;14.05;;;;;;;;;;5036305;28;20022;-65
2021/06/08 05:25:44;;;;;;;25.73;14.43;;;;;;;;;;5035990;28;20032;-65
2021/06/08 05:28:11;;;;;;;22.13;14.85;;;;;;;;;;5035738;28;20053;-64
2021/06/08 05:30:38;;;;;;;21.02;13.73;;;;;;;;;;5034587;28;20037;-65
2021/06/08 05:33:04;;;;;;;21.77;13.75;;;;;;;;;;5033688;28;20053;-66
2021/06/08 05:35:30;;;;;;;21.48;13.98;;;;;;;;;;5032623;28;20029;-65
2021/06/08 05:38:06;;;;;;;22.08;14.10;;;;;;;;;;5033734;28;20051;-65
2021/06/08 05:40:33;;;;;;;20.45;14.68;;;;;;;;;;5033674;28;20030;-65
2021/06/08 05:42:59;;;;;;;24.27;14.43;;;;;;;;;;5032891;28;20022;-65
2021/06/08 05:45:25;;;;;;;21.73;14.57;;;;;;;;;;5032169;28;20036;-65
2021/06/08 05:47:51;;;;;;;21.58;14.25;;;;;;;;;;5033461;28;20029;-65
2021/06/08 05:50:17;;;;;;;26.00;15.25;;;;;;;;;;5033338;28;20456;-64
2021/06/08 05:52:44;;;;;;;26.42;14.25;;;;;;;;;;5031005;28;20121;-64
2021/06/08 05:55:11;;;;;;;21.17;14.00;;;;;;;;;;5031440;28;20025;-65
2021/06/08 05:57:37;;;;;;;24.33;14.88;;;;;;;;;;5033021;28;20126;-64
2021/06/08 06:00:04;;;;;;;22.73;15.02;;;;;;;;;;5033324;28;20065;-65
2021/06/08 06:02:33;;;;;;;21.83;15.18;;;;;;;;;;5032841;28;20029;-65
2021/06/08 06:04:59;;;;;;;25.73;14.48;;;;;;;;;;5031965;28;20386;-66
2021/06/08 06:07:26;;;;;;;25.58;15.05;;;;;;;;;;5033551;28;20489;-64
2021/06/08 06:09:52;;;;;;;20.00;13.88;;;;;;;;;;5033187;28;20028;-65
2021/06/08 06:12:19;;;;;;;23.20;15.07;;;;;;;;;;5033191;28;20033;-64
2021/06/08 06:14:45;;;;;;;21.08;14.88;;;;;;;;;;5033341;28;20074;-66
2021/06/08 06:17:12;;;;;;;23.13;14.63;;;;;;;;;;5033789;28;20022;-65
2021/06/08 06:19:39;;;;;;;22.30;15.30;;;;;;;;;;5033015;28;20045;-64
2021/06/08 06:22:05;;;;;;;27.70;15.20;;;;;;;;;;5032530;28;20120;-63
2021/06/08 06:24:33;;;;;;;22.17;15.52;;;;;;;;;;5033034;28;20033;-64
2021/06/08 06:26:59;;;;;;;22.20;15.73;;;;;;;;;;5032956;28;20021;-64
2021/06/08 06:29:25;;;;;;;23.13;15.23;;;;;;;;;;5032796;28;20033;-64
2021/06/08 06:32:07;;;;;;;21.60;16.02;;;;;;;;;;5008914;28;20049;-64
2021/06/08 06:34:33;;;;;;;21.95;16.27;;;;;;;;;;5031851;28;20029;-64
2021/06/08 06:37:02;;;;;;;22.42;16.70;;;;;;;;;;5033069;28;20025;-65
2021/06/08 06:39:30;;;;;;;24.58;16.40;;;;;;;;;;5032635;28;20020;-65
2021/06/08 06:42:00;;;;;;;21.85;16.27;;;;;;;;;;5032469;28;20025;-64
2021/06/08 06:44:26;;;;;;;24.95;16.70;;;;;;;;;;5030446;28;20112;-64
2021/06/08 06:46:53;;;;;;;25.55;17.67;;;;;;;;;;5032331;28;20025;-65
2021/06/08 06:49:21;;;;;;;22.58;17.40;;;;;;;;;;5031987;28;20032;-65
2021/06/08 06:51:48;;;;;;;23.63;17.58;;;;;;;;;;5032898;28;20474;-65
2021/06/08 06:54:14;;;;;;;23.70;18.05;;;;;;;;;;5032518;28;20037;-63
2021/06/08 06:56:41;;;;;;;23.67;16.00;;;;;;;;;;5032531;28;20095;-64
2021/06/08 06:59:07;;;;;;;23.17;16.85;;;;;;;;;;5032468;28;20469;-65
2021/06/08 07:01:33;;;;;;;23.13;17.13;;;;;;;;;;5031914;28;20109;-64
2021/06/08 07:04:01;;;;;;;24.63;17.20;;;;;;;;;;5032443;28;20025;-64
2021/06/08 07:06:28;;;;;;;24.02;17.65;;;;;;;;;;5032379;28;20025;-63
2021/06/08 07:08:55;;;;;;;24.55;19.38;;;;;;;;;;5032193;28;20398;-65
2021/06/08 07:11:22;;;;;;;25.88;21.08;;;;;;;;;;5032114;28;20489;-66
2021/06/08 07:13:48;;;;;;;24.55;17.77;;;;;;;;;;5031030;28;20029;-65
2021/06/08 07:16:15;;;;;;;24.15;17.73;;;;;;;;;;5031000;28;20026;-65
2021/06/08 07:18:42;;;;;;;25.35;18.73;;;;;;;;;;5030646;28;20500;-64
2021/06/08 07:21:08;;;;;;;24.15;19.40;;;;;;;;;;5030634;28;20108;-66
2021/06/08 07:23:35;;;;;;;24.25;18.33;;;;;;;;;;5031862;28;20025;-66
2021/06/08 07:26:01;;;;;;;27.35;21.38;;;;;;;;;;5031306;28;20101;-66
2021/06/08 07:28:28;;;;;;;24.95;19.00;;;;;;;;;;5029924;28;20112;-65
2021/06/08 07:30:55;;;;;;;25.33;18.80;;;;;;;;;;5046616;22;20037;-67
2021/06/08 07:33:41;;;;;;;25.38;20.35;;;;;;;;;;5029720;28;20037;-66
2021/06/08 07:36:10;;;;;;;25.10;18.20;;;;;;;;;;5019813;28;20104;-65
2021/06/08 07:38:44;;;;;;;25.65;17.77;;;;;;;;;;5029045;28;20246;-66
2021/06/08 07:41:13;;;;;;;24.55;20.85;;;;;;;;;;5034997;28;20033;-66
2021/06/08 07:43:42;;;;;;;23.08;18.02;;;;;;;;;;5031947;28;20033;-66
2021/06/08 07:46:14;;;;;;;24.63;19.77;;;;;;;;;;5049965;28;20384;-66
2021/06/08 07:48:43;;;;;;;25.50;20.27;;;;;;;;;;5050273;28;20025;-64
2021/06/08 07:51:10;;;;;;;25.75;20.20;;;;;;;;;;5049890;28;20021;-66
2021/06/08 07:53:36;;;;;;;28.05;19.05;;;;;;;;;;5049495;28;20481;-66
2021/06/08 07:56:03;;;;;;;25.40;18.33;;;;;;;;;;5048685;28;20048;-64
2021/06/08 07:58:29;;;;;;;24.02;18.77;;;;;;;;;;5049556;28;20021;-66
2021/06/08 08:00:57;;;;;;;25.75;19.40;;;;;;;;;;5048379;28;20108;-66
2021/06/08 08:03:27;;;;;;;24.27;19.70;;;;;;;;;;5049463;28;20025;-66
2021/06/08 08:06:07;;;;;;;25.63;21.17;;;;;;;;;;5049765;28;20025;-66
2021/06/08 08:08:34;;;;;;;26.85;20.77;;;;;;;;;;5047726;28;20284;-63
2021/06/08 08:11:01;;;;;;;25.15;20.90;;;;;;;;;;5049266;28;20025;-65
2021/06/08 08:13:28;;;;;;;24.48;20.55;;;;;;;;;;5049341;28;20481;-65
2021/06/08 08:15:55;;;;;;;25.80;21.00;;;;;;;;;;5048732;28;20341;-64
2021/06/08 08:18:22;;;;;;;26.63;20.88;;;;;;;;;;5048828;28;20025;-65
2021/06/08 08:20:56;;;;;;;24.90;19.33;;;;;;;;;;5048246;28;20025;-64
2021/06/08 08:23:27;;;;;;;25.58;20.15;;;;;;;;;;5048414;28;20032;-64
2021/06/08 08:25:54;;;;;;;24.13;19.23;;;;;;;;;;5049827;28;20167;-62
2021/06/08 08:28:21;;;;;;;24.77;19.45;;;;;;;;;;5047949;28;20446;-62
2021/06/08 08:30:47;;;;;;;25.17;18.73;;;;;;;;;;5048377;28;20029;-64
2021/06/08 08:33:13;;;;;;;23.77;18.88;;;;;;;;;;5047914;28;20128;-64
2021/06/08 08:35:39;;;;;;;24.48;19.73;;;;;;;;;;5049732;28;20025;-63
2021/06/08 08:38:06;;;;;;;25.55;18.95;;;;;;;;;;5050160;28;20021;-64
2021/06/08 08:40:32;;;;;;;24.85;19.25;;;;;;;;;;5049654;28;20025;-64
2021/06/08 08:43:01;;;;;;;26.65;18.95;;;;;;;;;;5049566;28;20025;-62
2021/06/08 08:45:28;;;;;;;24.42;19.48;;;;;;;;;;5050105;28;20017;-62
2021/06/08 08:47:55;;;;;;;26.60;20.48;;;;;;;;;;5048493;28;20025;-63
2021/06/08 08:50:21;;;;;;;27.92;19.42;;;;;;;;;;5049921;28;20021;-64
2021/06/08 08:52:56;;;;;;;24.70;20.00;;;;;;;;;;5049285;28;20094;-65
2021/06/08 08:55:24;;;;;;;24.33;19.15;;;;;;;;;;5049659;28;20048;-62
2021/06/08 08:57:50;;;;;;;26.63;20.13;;;;;;;;;;5049520;28;20033;-64
2021/06/08 09:00:16;;;;;;;24.27;19.25;;;;;;;;;;5049554;28;20028;-62
2021/06/08 09:02:43;;;;;;;25.63;20.70;;;;;;;;;;5049613;28;20029;-60
2021/06/08 09:05:10;;;;;;;29.60;22.25;;;;;;;;;;5049681;28;20024;-61
2021/06/08 09:07:36;;;;;;;25.55;20.15;;;;;;;;;;5049724;28;20480;-62
2021/06/08 09:10:03;;;;;;;23.73;19.23;;;;;;;;;;5049350;28;20025;-61
2021/06/08 09:12:29;;;;;;;26.27;21.42;;;;;;;;;;5051670;28;20025;-60
2021/06/08 09:14:55;;;;;;;25.58;20.65;;;;;;;;;;5051945;28;20104;-62
2021/06/08 09:17:22;;;;;;;30.00;20.70;;;;;;;;;;5051614;28;20060;-63
2021/06/08 09:19:48;;;;;;;24.50;20.67;;;;;;;;;;5052162;28;20025;-61
2021/06/08 09:22:15;;;;;;;25.13;20.70;;;;;;;;;;5052643;28;20042;-62
2021/06/08 09:24:43;;;;;;;28.08;22.25;;;;;;;;;;5052714;28;20029;-63
2021/06/08 09:27:09;;;;;;;26.88;20.65;;;;;;;;;;5051440;28;20102;-61
2021/06/08 09:29:37;;;;;;;25.60;21.30;;;;;;;;;;5052220;28;20024;-62
2021/06/08 09:32:21;;;;;;;26.52;19.88;;;;;;;;;;5049431;28;20507;-62
2021/06/08 09:34:47;;;;;;;27.33;20.35;;;;;;;;;;5052001;28;20061;-62
2021/06/08 09:37:13;;;;;;;26.15;21.55;;;;;;;;;;5053298;28;20037;-62
2021/06/08 09:39:47;;;;;;;27.02;20.50;;;;;;;;;;5053220;28;20444;-62
2021/06/08 09:42:21;;;;;;;26.23;20.73;;;;;;;;;;5052830;28;20057;-62
2021/06/08 09:44:47;;;;;;;24.23;20.08;;;;;;;;;;5051498;28;20050;-62
2021/06/08 09:47:24;;;;;;;26.75;22.23;;;;;;;;;;5053107;28;20092;-62
2021/06/08 09:49:50;;;;;;;28.33;20.20;;;;;;;;;;5053139;28;20051;-62
2021/06/08 09:52:19;;;;;;;29.45;20.17;;;;;;;;;;5052311;28;20063;-65
2021/06/08 09:54:45;;;;;;;25.65;20.00;;;;;;;;;;5052501;28;20145;-61
2021/06/08 09:57:12;;;;;;;27.73;21.48;;;;;;;;;;5052556;28;20028;-60
2021/06/08 09:59:41;;;;;;;23.75;19.48;;;;;;;;;;5052558;28;20033;-63
2021/06/08 10:02:23;;;;;;;25.73;21.23;;;;;;;;;;5051994;28;20025;-60
2021/06/08 10:04:49;;;;;;;27.02;20.40;;;;;;;;;;5045920;28;20104;-60
2021/06/08 10:07:31;;;;;;;26.23;21.40;;;;;;;;;;5041971;28;20108;-60
2021/06/08 10:10:08;;;;;;;27.90;21.15;;;;;;;;;;5049779;28;20017;-59
2021/06/08 10:12:34;;;;;;;27.25;21.98;;;;;;;;;;5046052;28;20056;-61
2021/06/08 10:15:05;;;;;;;25.63;20.80;;;;;;;;;;5050693;28;20075;-61
2021/06/08 10:17:31;;;;;;;25.90;22.15;;;;;;;;;;5050565;28;20078;-59
2021/06/08 10:19:57;;;;;;;27.52;22.33;;;;;;;;;;5052095;28;20029;-61
2021/06/08 10:22:30;;;;;;;26.45;22.13;;;;;;;;;;5049419;28;20051;-61
2021/06/08 10:24:56;;;;;;;25.95;21.75;;;;;;;;;;5051548;28;20115;-59
2021/06/08 10:27:22;;;;;;;28.02;21.58;;;;;;;;;;5051997;28;20058;-57
2021/06/08 10:29:48;;;;;;;26.08;21.45;;;;;;;;;;5051774;28;20029;-57
2021/06/08 10:32:14;;;;;;;26.38;20.60;;;;;;;;;;5051299;28;20040;-59
2021/06/08 10:34:41;;;;;;;29.10;20.55;;;;;;;;;;5051672;28;20523;-59
2021/06/08 10:37:08;;;;;;;25.23;19.88;;;21.60;99.90;;;;;;5051542;28;20021;-61
2021/06/08 10:39:35;;;;;;;22.90;19.23;;;;;;;;;;5049848;28;20101;-60
2021/06/08 10:42:01;;;;;;;23.30;18.75;;;22.90;99.90;;;;;;5050899;28;20032;-56
2021/06/08 10:44:29;;;;;;;25.20;19.70;;;23.30;99.90;;;;;;5051255;28;20020;-60
2021/06/08 10:46:59;;;;;;;24.20;18.30;;;;;;;;;;5051181;28;20013;-59
2021/06/08 10:49:35;;;;;;;23.17;18.52;;;;;;;;;;5051458;28;20017;-59
2021/06/08 10:52:08;;;;;;;26.00;19.35;;;;;;;;;;5051051;28;20103;-60
2021/06/08 10:54:41;;;;;;;24.42;20.27;;;;;;;;;;5049913;28;20025;-57
2021/06/08 10:57:13;;;;;;;25.95;20.20;;;;;;;;;;5050321;28;20028;-59
2021/06/08 10:59:40;;;;;;;24.63;21.50;;;;;;;;;;5049869;28;20017;-61
2021/06/08 11:02:07;;;;;;;23.58;19.60;;;;;;;;;;5050774;28;20104;-60
2021/06/08 11:04:52;;;;;;;24.25;19.67;;;;;;;;;;5051244;28;20392;-60
2021/06/08 11:07:37;;;;;;;25.52;21.15;;;;;;;;;;5050935;28;20075;-60
2021/06/08 11:10:23;;;;;;;24.42;21.67;;;;;;;;;;5050778;28;20449;-61
2021/06/08 11:12:49;;;;;;;26.48;22.92;;;;;;;;;;5050227;28;20039;-60
2021/06/08 11:15:21;;;;;;;25.85;22.15;;;23.60;99.90;;;;;;5049869;28;20025;-61
2021/06/08 11:17:46;;;;;;;27.48;24.60;;;24.40;99.90;;;;;;5051070;28;20021;-62
2021/06/08 11:20:12;;;;;;;27.58;24.30;;;24.50;99.90;;;;;;5050677;28;20044;-60
2021/06/08 11:22:40;;;;;;;27.05;23.25;;;24.30;99.90;;;;;;5050200;28;20037;-61
2021/06/08 11:25:07;;;;;;;;;;;24.90;99.90;;;;;;5049842;28;20028;-59
2021/06/08 11:28:01;;;;;;;25.77;23.08;;;25.40;99.90;;;;;;5050556;28;20283;-60
2021/06/08 11:30:53;;;;;;;26.25;23.45;;;25.90;99.90;;;;;;5049528;28;20047;-60
2021/06/08 11:33:26;;;;;;;26.92;24.15;;;26.60;99.90;;;;;;5048460;28;20045;-61
2021/06/08 11:35:52;;;;;;;27.00;22.67;;;27.90;99.90;;;;;;5050600;28;20115;-59
2021/06/08 11:38:23;;;;;;;24.38;21.83;;;29.30;99.90;;;;;;5050779;28;20389;-61
2021/06/08 11:40:52;;;;;;;24.67;22.08;;;30.60;99.90;;;;;;5050489;28;20036;-60
2021/06/08 11:43:17;;;;;;;25.65;23.10;;;31.20;99.90;;;;;;5050302;28;20025;-61
2021/06/08 11:45:45;;;;;;;26.52;24.02;;;31.60;99.90;;;;;;5048638;28;20485;-60
2021/06/08 11:48:32;;;;;;;26.40;23.67;;;30.60;99.90;;;;;;5050320;28;20032;-60
2021/06/08 11:51:06;;;;;;;28.40;25.65;;;30.00;99.90;;;;;;5050647;28;20033;-61
2021/06/08 11:53:39;;;;;;;27.60;25.00;;;28.50;99.90;;;;;;5049176;28;20028;-60
2021/06/08 11:56:32;;;;;;;28.92;26.05;;;26.80;99.90;;;;;;5050454;28;20099;-63
2021/06/08 11:59:18;;;;;;;27.08;24.33;;;26.00;99.90;;;;;;5053169;28;20098;-66
2021/06/08 12:01:50;;;;;;;25.52;23.05;;;26.10;99.90;;;;;;5052563;28;20060;-66
2021/06/08 12:04:18;;;;;;;26.92;24.13;;;26.90;99.90;;;;;;5051015;28;20029;-66
2021/06/08 12:07:03;;;;;;;25.63;23.02;;;28.30;99.90;;;;;;5051031;28;20025;-66
2021/06/08 12:09:34;;;;;;;26.48;23.67;;;29.70;99.90;;;;;;5051368;28;20048;-60
2021/06/08 12:12:05;;;;;;;30.83;26.08;;;31.30;99.90;;;;;;5050163;28;20025;-59
2021/06/08 12:14:31;;;;;;;28.77;25.98;;;32.70;99.20;;;;;;5048883;28;20520;-64
2021/06/08 12:16:59;;;;;;;29.58;26.73;;;33.70;99.90;;;;;;5050275;28;20136;-64
2021/06/08 12:19:33;;;;;;;28.25;25.55;;;32.20;98.60;;;;;;5049451;28;20017;-65
2021/06/08 12:22:00;;;;;;;27.52;24.80;;;;;;;;;;4687430;28;10000496;-65
2021/06/08 12:24:26;;;;;;;29.00;25.80;;;30.80;99.90;;;;;;5035137;28;20049;-63
2021/06/08 12:26:58;;;;;;;27.58;24.88;;;30.00;99.90;;;;;;5032146;28;20073;-58
2021/06/08 12:29:24;;;;;;;26.85;23.63;;;29.10;99.90;;;;;;5026923;28;20026;-65
2021/06/08 12:32:05;;;;;;;26.17;23.58;;;28.80;99.90;;;;;;5026348;28;20083;-65
2021/06/08 12:34:38;;;;;;;27.52;24.80;;;29.30;99.90;;;;;;5025841;28;20113;-64
2021/06/08 12:37:04;;;;;;;28.38;25.42;;;29.40;99.90;;;;;;5026854;28;20032;-64
2021/06/08 12:39:33;;;;;;;27.92;25.02;;;;;;;;;;5027039;28;20116;-63
2021/06/08 12:42:15;;;;;;;27.80;24.95;;;29.00;99.90;;;;;;5026557;28;20025;-63
2021/06/08 12:44:42;;;;;;;27.75;24.88;;;28.10;99.90;;;;;;5026257;28;20034;-62
2021/06/08 12:47:08;;;;;;;27.05;24.10;;;;;;;;;;5031090;28;20053;-63
2021/06/08 12:49:38;;;;;;;23.77;21.33;;;;;;;;;;5030853;28;20486;-64
2021/06/08 12:52:05;;;;;;;23.45;21.05;;;;;;;;;;5031056;28;20107;-63
2021/06/08 12:54:35;;;;;;;24.27;21.10;;;27.20;99.90;;;;;;5036669;28;20040;-66
2021/06/08 12:57:09;;;;;;;25.88;22.27;;;26.90;99.90;;;;;;5031972;28;20072;-65
2021/06/08 12:59:39;;;;;;;23.10;20.80;;;26.80;99.90;;;;;;5030416;28;20021;-63
2021/06/08 13:02:09;;;;;;;24.40;21.80;;;26.70;99.90;;;;;;5030545;28;20036;-64
2021/06/08 13:04:40;;;;;;;25.65;23.05;;;26.70;99.90;;;;;;5030048;28;20068;-65
2021/06/08 13:07:08;;;;;;;25.27;22.60;;;26.40;99.90;;;;;;5030583;28;20084;-64
2021/06/08 13:09:34;;;;;;;;;;;26.30;99.90;;;;;;5049833;28;20063;-62
2021/06/08 13:12:08;;;;;;;25.42;22.73;;;26.30;99.90;;;;;;5049669;28;19956;-62
2021/06/08 13:14:35;;;;;;;25.67;23.08;;;26.70;99.90;;;;;;5049371;28;20025;-61
2021/06/08 13:17:20;;;;;;;27.65;24.73;;;26.80;99.90;;;;;;5046509;28;20041;-64
2021/06/08 13:19:47;;;;;;;28.33;25.30;;;27.40;99.90;;;;;;5048839;28;20024;-64
2021/06/08 13:22:24;;;;;;;27.75;24.95;;;27.40;99.90;;;;;;5049517;28;20075;-62
2021/06/08 13:24:52;;;;;;;26.95;23.95;;;26.90;99.90;;;;;;5042511;28;20511;-63
2021/06/08 13:27:43;;;;;;;29.42;26.52;;;27.60;99.90;;;;;;5039118;28;20657;-64
2021/06/08 13:30:20;;;;;;;28.85;25.85;;;28.40;99.90;;;;;;5038921;28;20364;-64
2021/06/08 13:33:02;;;;;;;28.88;26.08;;;28.60;99.90;;;;;;5039342;28;20033;-64
2021/06/08 13:35:34;;;;;;;28.45;25.65;;;29.50;99.90;;;;;;5040404;28;20033;-63
2021/06/08 13:38:02;;;;;;;28.67;25.80;;;30.20;99.90;;;;;;5050468;23;20056;-63
2021/06/08 13:40:40;;;;;;;28.40;25.60;;;31.50;99.70;;;;;;5029737;28;20104;-61
2021/06/08 13:43:13;;;;;;;29.70;26.80;;;31.60;98.90;;;;;;5027204;28;20032;-62
2021/06/08 13:45:51;;;;;;;28.85;26.02;;;31.20;98.80;;;;;;5029989;28;20021;-61
2021/06/08 13:48:19;;;;;;;29.75;26.90;;;30.20;99.50;;;;;;5027961;28;20014;-63
2021/06/08 13:50:46;;;;;;;28.52;25.90;;;;;;;;;;5031633;28;20386;-61
2021/06/08 13:53:20;;;;;;;31.08;27.88;;;;;;;;;;5027805;28;20073;-61
2021/06/08 13:56:07;;;;;;;31.00;28.00;;;29.40;99.90;;;;;;5012908;28;20394;-61
2021/06/08 14:01:30;;;;;;;30.35;26.95;;;28.30;99.90;;;;;;5013450;28;20036;-62
2021/06/08 14:04:15;;;;;;;29.83;26.77;;;28.00;99.90;;;;;;5011968;28;20026;-63
2021/06/08 14:06:50;;;;;;;31.63;28.40;;;28.20;99.90;;;;;;5023172;28;20120;-63